createdAt,value
2023-05-10T00:00:41.939Z,100122.75
2023-05-10T00:03:09.720Z,100123.34
2023-05-10T00:05:36.897Z,100118.91
2023-05-10T00:08:04.229Z,100120.81
2023-05-10T00:10:31.661Z,100123.62
2023-05-10T00:12:58.815Z,100127.72
2023-05-10T00:15:26.007Z,100118.00
2023-05-10T00:17:53.498Z,100123.31
2023-05-10T00:20:20.697Z,100126.50
2023-05-10T00:22:47.857Z,100116.00
2023-05-10T00:25:15.374Z,100120.25
2023-05-10T00:27:42.581Z,100114.47
2023-05-10T00:30:09.895Z,100116.28
2023-05-10T00:32:37.392Z,100108.47
2023-05-10T00:35:05.444Z,100112.72
2023-05-10T00:37:33.026Z,100111.63
2023-05-10T00:40:00.543Z,100112.41
2023-05-10T00:42:27.748Z,100109.66
2023-05-10T00:44:55.127Z,100116.28
2023-05-10T00:47:22.944Z,100109.94
2023-05-10T00:49:50.145Z,100105.75
2023-05-10T00:52:17.298Z,100109.53
2023-05-10T00:54:44.722Z,100105.72
2023-05-10T00:57:11.947Z,100109.59
2023-05-10T00:59:39.065Z,100106.16
2023-05-10T01:02:06.557Z,100108.09
2023-05-10T01:04:33.775Z,100101.44
2023-05-10T01:07:00.982Z,100108.50
2023-05-10T01:09:28.766Z,100107.22
2023-05-10T01:11:56.450Z,100105.91
2023-05-10T01:14:24.120Z,100101.47
2023-05-10T01:16:51.934Z,100104.25
2023-05-10T01:19:30.580Z,100102.28
2023-05-10T01:22:14.058Z,100093.59
2023-05-10T01:25:00.209Z,100092.66
2023-05-10T01:27:34.764Z,100092.31
2023-05-10T01:30:14.216Z,100087.69
2023-05-10T01:32:43.355Z,100092.34
2023-05-10T01:35:18.507Z,100087.75
2023-05-10T01:37:49.447Z,100091.09
2023-05-10T01:40:53.898Z,100098.72
2023-05-10T01:43:25.730Z,100089.00
2023-05-10T01:46:17.671Z,100089.53
2023-05-10T01:48:49.245Z,100087.19
2023-05-10T01:51:18.488Z,100086.25
2023-05-10T01:53:47.456Z,100084.63
2023-05-10T01:56:15.484Z,100088.84
2023-05-10T01:58:46.588Z,100091.44
2023-05-10T02:01:14.694Z,100092.47
2023-05-10T02:03:44.048Z,100090.63
2023-05-10T02:06:13.983Z,100085.63
2023-05-10T02:08:42.277Z,100076.09
2023-05-10T02:11:10.158Z,100077.22
2023-05-10T02:13:40.393Z,100070.13
2023-05-10T02:16:08.881Z,100069.25
2023-05-10T02:18:37.711Z,100073.81
2023-05-10T02:21:05.530Z,100071.03
2023-05-10T02:23:33.125Z,100059.09
2023-05-10T02:26:03.858Z,100060.91
2023-05-10T02:28:32.205Z,100063.81
2023-05-10T02:30:59.851Z,100064.13
2023-05-10T02:33:28.628Z,100067.91
2023-05-10T02:35:56.640Z,100069.28
2023-05-10T02:38:24.369Z,100066.44
2023-05-10T02:40:52.534Z,100068.03
2023-05-10T02:43:20.116Z,100070.56
2023-05-10T02:45:48.485Z,100069.38
2023-05-10T02:48:17.063Z,100073.59
2023-05-10T02:50:45.995Z,100062.38
2023-05-10T02:53:17.541Z,100076.53
2023-05-10T02:55:47.550Z,100066.28
2023-05-10T02:58:15.037Z,100070.28
2023-05-10T03:00:42.535Z,100061.37
2023-05-10T03:03:10.211Z,100065.53
2023-05-10T03:05:38.381Z,100059.84
2023-05-10T03:08:06.109Z,100061.91
2023-05-10T03:10:35.088Z,100064.28
2023-05-10T03:13:14.207Z,100063.47
2023-05-10T03:16:24.115Z,100061.63
2023-05-10T03:19:08.391Z,100064.03
2023-05-10T03:21:39.143Z,100060.84
2023-05-10T03:24:09.333Z,100071.00
2023-05-10T03:26:38.362Z,100064.88
2023-05-10T03:29:07.476Z,100064.69
2023-05-10T03:31:35.011Z,100063.69
2023-05-10T03:34:02.753Z,100064.75
2023-05-10T03:36:30.192Z,100063.13
2023-05-10T03:38:57.684Z,100065.19
2023-05-10T03:41:26.396Z,100064.78
2023-05-10T03:43:54.089Z,100067.91
2023-05-10T03:46:21.821Z,100065.72
2023-05-10T03:48:49.846Z,100065.16
2023-05-10T03:51:17.094Z,100067.22
2023-05-10T03:53:44.453Z,100062.38
2023-05-10T03:56:12.077Z,100067.56
2023-05-10T03:58:39.429Z,100070.47
2023-05-10T04:01:06.603Z,100065.00
2023-05-10T04:03:34.305Z,100062.00
2023-05-10T04:06:02.277Z,100059.88
2023-05-10T04:08:30.035Z,100059.62
2023-05-10T04:11:09.729Z,100053.75
2023-05-10T04:13:36.920Z,100051.78
2023-05-10T04:16:04.521Z,100059.25
2023-05-10T04:18:32.141Z,100061.94
2023-05-10T04:20:59.353Z,100062.28
2023-05-10T04:23:28.013Z,100064.44
2023-05-10T04:26:00.270Z,100067.13
2023-05-10T04:28:28.256Z,100067.13
2023-05-10T04:31:01.572Z,100077.69
2023-05-10T04:33:29.018Z,100082.88
2023-05-10T04:35:57.205Z,100071.91
2023-05-10T04:38:24.369Z,100074.28
2023-05-10T04:40:51.860Z,100079.31
2023-05-10T04:43:19.055Z,100079.25
2023-05-10T04:45:46.243Z,100075.84
2023-05-10T04:48:14.063Z,100077.22
2023-05-10T04:50:41.430Z,100075.38
2023-05-10T04:53:08.814Z,100068.94
2023-05-10T04:55:36.605Z,100070.69
2023-05-10T04:58:03.995Z,100070.94
2023-05-10T05:00:31.386Z,100074.31
2023-05-10T05:02:59.102Z,100069.56
2023-05-10T05:05:26.374Z,100070.47
2023-05-10T05:07:53.584Z,100080.19
2023-05-10T05:10:21.269Z,100065.84
2023-05-10T05:12:48.616Z,100066.34
2023-05-10T05:15:17.634Z,100085.22
2023-05-10T05:17:45.059Z,100073.28
2023-05-10T05:20:12.512Z,100071.03
2023-05-10T05:22:39.823Z,100073.44
2023-05-10T05:25:07.486Z,100067.97
2023-05-10T05:27:34.601Z,100077.37
2023-05-10T05:30:01.923Z,100081.09
2023-05-10T05:32:29.750Z,100076.66
2023-05-10T05:34:56.892Z,100083.41
2023-05-10T05:37:25.406Z,100082.53
2023-05-10T05:39:52.954Z,100087.87
2023-05-10T05:42:20.428Z,100090.72
2023-05-10T05:44:47.880Z,100093.31
2023-05-10T05:47:15.591Z,100085.09
2023-05-10T05:49:42.961Z,100095.47
2023-05-10T05:52:10.338Z,100095.97
2023-05-10T05:54:37.994Z,100089.13
2023-05-10T05:57:05.462Z,100085.22
2023-05-10T05:59:32.977Z,100092.81
2023-05-10T06:02:01.671Z,100095.63
2023-05-10T06:04:29.654Z,100097.66
2023-05-10T06:06:57.194Z,100103.50
2023-05-10T06:09:25.558Z,100090.41
2023-05-10T06:11:53.273Z,100106.56
2023-05-10T06:14:23.588Z,100089.81
2023-05-10T06:16:51.119Z,100097.41
2023-05-10T06:19:18.958Z,100090.63
2023-05-10T06:21:46.347Z,100098.84
2023-05-10T06:24:13.769Z,100107.38
2023-05-10T06:26:41.426Z,100099.34
2023-05-10T06:29:08.786Z,100107.75
2023-05-10T06:31:36.281Z,100110.94
2023-05-10T06:34:04.028Z,100107.16
2023-05-10T06:36:31.761Z,100105.00
2023-05-10T06:38:59.157Z,100102.16
2023-05-10T06:41:26.779Z,100108.63
2023-05-10T06:43:54.227Z,100103.66
2023-05-10T06:46:21.682Z,100110.44
2023-05-10T06:48:49.373Z,100114.41
2023-05-10T06:51:16.781Z,100108.03
2023-05-10T06:53:46.260Z,100106.03
2023-05-10T06:56:13.901Z,100104.56
2023-05-10T06:58:41.278Z,100104.41
2023-05-10T07:01:09.339Z,100107.09
2023-05-10T07:03:37.309Z,100099.19
2023-05-10T07:06:06.467Z,100103.09
2023-05-10T07:08:36.594Z,100097.94
2023-05-10T07:11:05.559Z,100107.88
2023-05-10T07:13:33.026Z,100104.38
2023-05-10T07:16:03.029Z,100103.97
2023-05-10T07:18:30.708Z,100096.59
2023-05-10T07:20:58.791Z,100104.59
2023-05-10T07:23:26.238Z,100101.06
2023-05-10T07:25:54.454Z,100099.62
2023-05-10T07:28:21.822Z,100094.03
2023-05-10T07:30:49.317Z,100089.00
2023-05-10T07:33:17.434Z,100088.81
2023-05-10T07:35:44.929Z,100084.66
2023-05-10T07:38:12.334Z,100081.63
2023-05-10T07:40:40.549Z,100083.88
2023-05-10T07:43:08.062Z,100086.19
2023-05-10T07:45:35.582Z,100080.44
2023-05-10T07:48:03.532Z,100072.03
2023-05-10T07:50:30.959Z,100072.91
2023-05-10T07:52:58.489Z,100079.25
2023-05-10T07:55:26.166Z,100074.34
2023-05-10T07:57:53.640Z,100083.69
2023-05-10T08:00:21.526Z,100077.56
2023-05-10T08:02:49.425Z,100079.28
2023-05-10T08:05:17.136Z,100083.50
2023-05-10T08:07:44.782Z,100080.91
2023-05-10T08:10:13.649Z,100074.66
2023-05-10T08:12:41.216Z,100075.16
2023-05-10T08:15:09.467Z,100055.75
2023-05-10T08:17:37.294Z,100078.41
2023-05-10T08:20:05.210Z,100068.28
2023-05-10T08:22:32.836Z,100070.75
2023-05-10T08:25:01.064Z,100071.97
2023-05-10T08:27:28.682Z,100076.31
2023-05-10T08:29:56.101Z,100072.13
2023-05-10T08:32:23.756Z,100068.41
2023-05-10T08:34:51.002Z,100077.44
2023-05-10T08:37:18.301Z,100074.06
2023-05-10T08:39:48.902Z,100059.34
2023-05-10T08:42:17.329Z,100075.47
2023-05-10T08:44:44.523Z,100064.63
2023-05-10T08:47:12.327Z,100070.31
2023-05-10T08:49:39.752Z,100064.56
2023-05-10T08:52:08.286Z,100066.25
2023-05-10T08:54:36.100Z,100063.03
2023-05-10T08:57:03.572Z,100067.25
2023-05-10T08:59:30.763Z,100064.25
2023-05-10T09:01:58.853Z,100072.91
2023-05-10T09:04:26.497Z,100065.56
2023-05-10T09:06:54.815Z,100062.97
2023-05-10T09:09:22.706Z,100061.22
2023-05-10T09:11:49.918Z,100063.34
2023-05-10T09:14:17.256Z,100065.03
2023-05-10T09:16:44.747Z,100063.87
2023-05-10T09:19:12.032Z,100062.84
2023-05-10T09:21:39.382Z,100044.19
2023-05-10T09:24:07.379Z,100063.16
2023-05-10T09:26:36.331Z,100069.62
2023-05-10T09:29:04.024Z,100064.63
2023-05-10T09:31:48.617Z,100056.53
2023-05-10T09:34:24.088Z,100064.41
2023-05-10T09:36:52.361Z,100057.16
2023-05-10T09:39:19.660Z,100056.41
2023-05-10T09:41:46.952Z,100044.97
2023-05-10T09:44:18.769Z,100054.97
2023-05-10T09:46:49.664Z,100056.75
2023-05-10T09:49:17.078Z,100056.28
2023-05-10T09:51:44.209Z,100050.91
2023-05-10T09:54:12.025Z,100056.38
2023-05-10T09:56:41.429Z,100048.22
2023-05-10T09:59:10.354Z,100038.03
2023-05-10T10:01:37.895Z,100041.56
2023-05-10T10:04:05.993Z,100040.50
2023-05-10T10:06:39.820Z,100036.87
2023-05-10T10:09:07.733Z,100034.84
2023-05-10T10:11:38.427Z,100041.13
2023-05-10T10:14:05.970Z,100036.75
2023-05-10T10:16:33.597Z,100034.72
2023-05-10T10:19:01.010Z,100036.00
2023-05-10T10:21:29.063Z,100025.88
2023-05-10T10:23:57.015Z,100032.19
2023-05-10T10:26:24.265Z,100026.19
2023-05-10T10:28:53.291Z,100015.16
2023-05-10T10:31:29.540Z,100021.50
2023-05-10T10:33:58.162Z,100025.06
2023-05-10T10:36:28.159Z,100020.16
2023-05-10T10:39:00.250Z,100021.41
2023-05-10T10:41:31.843Z,100015.75
2023-05-10T10:44:18.106Z,100005.28
2023-05-10T10:47:04.735Z,100012.09
2023-05-10T10:49:33.588Z,100013.25
2023-05-10T10:52:19.988Z,100003.56
2023-05-10T10:55:07.726Z,100004.62
2023-05-10T10:58:01.914Z,100001.91
2023-05-10T11:00:33.222Z,99996.38
2023-05-10T11:03:22.098Z,99989.94
2023-05-10T11:05:49.889Z,99986.81
2023-05-10T11:08:22.799Z,99990.75
2023-05-10T11:10:53.800Z,99977.25
2023-05-10T11:13:34.448Z,99980.19
2023-05-10T11:16:15.046Z,99975.09
2023-05-10T11:18:53.069Z,99974.06
2023-05-10T11:21:20.440Z,99974.06
2023-05-10T11:23:49.375Z,99976.00
2023-05-10T11:26:16.713Z,99972.19
2023-05-10T11:28:44.239Z,99968.06
2023-05-10T11:31:13.547Z,99970.13
2023-05-10T11:33:44.945Z,99965.88
2023-05-10T11:36:16.990Z,99960.09
2023-05-10T11:38:44.299Z,99968.09
2023-05-10T11:41:12.578Z,99970.03
2023-05-10T11:43:40.632Z,99959.62
2023-05-10T11:46:08.418Z,99960.19
2023-05-10T11:48:35.795Z,99957.53
2023-05-10T11:51:03.613Z,99961.84
2023-05-10T11:53:32.040Z,99954.06
2023-05-10T11:56:06.460Z,99947.22
2023-05-10T11:58:34.109Z,99952.00
2023-05-10T12:01:01.317Z,99950.81
2023-05-10T12:03:30.413Z,99956.03
2023-05-10T12:05:57.889Z,99963.91
2023-05-10T12:08:28.454Z,99962.78
2023-05-10T12:11:04.979Z,99961.56
2023-05-10T12:13:32.303Z,99953.13
2023-05-10T12:15:59.853Z,99957.94
2023-05-10T12:18:27.177Z,99954.09
2023-05-10T12:20:57.259Z,99960.22
2023-05-10T12:23:24.763Z,99955.06
2023-05-10T12:25:54.968Z,99952.03
2023-05-10T12:28:22.141Z,99945.13
2023-05-10T12:30:49.518Z,99952.69
2023-05-10T12:33:17.622Z,99945.41
2023-05-10T12:35:45.662Z,99951.47
2023-05-10T12:38:30.385Z,99938.88
2023-05-10T12:40:58.230Z,99930.66
2023-05-10T12:43:25.928Z,99929.75
2023-05-10T12:45:53.409Z,99929.44
2023-05-10T12:48:20.645Z,99924.37
2023-05-10T12:50:48.464Z,99936.00
2023-05-10T12:53:16.593Z,99921.72
2023-05-10T12:55:44.132Z,99924.28
2023-05-10T12:58:15.825Z,99925.31
2023-05-10T13:00:48.245Z,99914.56
2023-05-10T13:03:16.774Z,99910.75
2023-05-10T13:05:44.049Z,99909.41
2023-05-10T13:08:11.486Z,99915.78
2023-05-10T13:10:38.986Z,99916.09
2023-05-10T13:13:06.343Z,99918.66
2023-05-10T13:15:33.496Z,99905.44
2023-05-10T13:18:01.245Z,99904.78
2023-05-10T13:20:28.729Z,99897.88
2023-05-10T13:22:55.962Z,99894.44
2023-05-10T13:25:23.475Z,99896.22
2023-05-10T13:27:50.575Z,99885.88
2023-05-10T13:30:17.927Z,99884.78
2023-05-10T13:32:46.668Z,99888.25
2023-05-10T13:35:13.884Z,99881.72
2023-05-10T13:37:41.086Z,99872.59
2023-05-10T13:40:08.780Z,99875.66
2023-05-10T13:42:36.136Z,99880.72
2023-05-10T13:45:03.264Z,99866.25
2023-05-10T13:47:33.051Z,99878.19
2023-05-10T13:50:00.238Z,99866.97
2023-05-10T13:52:27.443Z,99879.53
2023-05-10T13:54:56.249Z,99870.81
2023-05-10T13:57:24.121Z,99871.09
2023-05-10T13:59:51.475Z,99868.16
2023-05-10T14:02:18.844Z,99863.41
2023-05-10T14:04:46.428Z,99859.25
2023-05-10T14:07:13.514Z,99853.63
2023-05-10T14:09:40.674Z,99854.16
2023-05-10T14:12:08.061Z,99847.47
2023-05-10T14:14:35.637Z,99842.88
2023-05-10T14:17:02.723Z,99843.09
2023-05-10T14:19:33.393Z,99839.38
2023-05-10T14:22:00.710Z,99837.19
2023-05-10T14:24:27.820Z,99835.34
2023-05-10T14:26:55.200Z,99835.13
2023-05-10T14:29:23.004Z,99830.31
2023-05-10T14:31:50.640Z,99841.13
2023-05-10T14:34:18.170Z,99835.31
2023-05-10T14:36:45.292Z,99832.84
2023-05-10T14:39:14.326Z,99832.53
2023-05-10T14:41:45.571Z,99831.56
2023-05-10T14:44:12.772Z,99827.00
2023-05-10T14:46:40.557Z,99824.09
2023-05-10T14:49:08.082Z,99822.84
2023-05-10T14:51:35.269Z,99823.09
2023-05-10T14:54:03.370Z,99820.69
2023-05-10T14:56:30.771Z,99821.19
2023-05-10T14:58:57.921Z,99821.81
2023-05-10T15:01:25.718Z,99813.91
2023-05-10T15:03:53.821Z,99813.53
2023-05-10T15:06:24.816Z,99820.75
2023-05-10T15:08:52.572Z,99815.66
2023-05-10T15:11:19.971Z,99816.97
2023-05-10T15:13:47.050Z,99819.84
2023-05-10T15:16:14.216Z,99807.09
2023-05-10T15:18:41.695Z,99807.50
2023-05-10T15:21:08.807Z,99814.09
2023-05-10T15:23:35.940Z,99808.94
2023-05-10T15:26:03.802Z,99814.25
2023-05-10T15:28:32.422Z,99814.00
2023-05-10T15:31:01.257Z,99821.69
2023-05-10T15:33:28.721Z,99815.75
2023-05-10T15:35:55.962Z,99813.78
2023-05-10T15:38:23.553Z,99818.56
2023-05-10T15:40:50.968Z,99819.34
2023-05-10T15:43:18.352Z,99816.06
2023-05-10T15:45:45.431Z,99819.53
2023-05-10T15:48:12.820Z,99816.00
2023-05-10T15:50:41.199Z,99812.81
2023-05-10T15:53:08.372Z,99813.16
2023-05-10T15:55:35.799Z,99816.91
2023-05-10T15:58:03.129Z,99821.34
2023-05-10T16:00:30.738Z,99814.88
2023-05-10T16:02:58.038Z,99815.69
2023-05-10T16:05:27.499Z,99821.09
2023-05-10T16:07:55.211Z,99815.03
2023-05-10T16:10:22.395Z,99816.50
2023-05-10T16:12:49.889Z,99821.72
2023-05-10T16:15:17.699Z,99814.25
2023-05-10T16:17:45.104Z,99819.00
2023-05-10T16:20:12.662Z,99825.31
2023-05-10T16:22:39.851Z,99821.34
2023-05-10T16:25:07.433Z,99811.63
2023-05-10T16:27:35.158Z,99820.22
2023-05-10T16:30:03.185Z,99825.66
2023-05-10T16:32:31.624Z,99827.84
2023-05-10T16:34:59.094Z,99825.44
2023-05-10T16:37:26.679Z,99826.56
2023-05-10T16:39:53.977Z,99832.03
2023-05-10T16:42:21.695Z,99819.72
2023-05-10T16:44:48.877Z,99830.72
2023-05-10T16:47:16.107Z,99834.97
2023-05-10T16:49:43.533Z,99829.31
2023-05-10T16:52:11.375Z,99830.59
2023-05-10T16:54:38.563Z,99831.72
2023-05-10T16:57:06.368Z,99818.72
2023-05-10T16:59:33.933Z,99826.06
2023-05-10T17:02:01.160Z,99832.53
2023-05-10T17:04:28.703Z,99838.25
2023-05-10T17:06:55.861Z,99840.87
2023-05-10T17:09:23.282Z,99846.31
2023-05-10T17:11:50.738Z,99848.22
2023-05-10T17:14:17.876Z,99842.66
2023-05-10T17:16:45.084Z,99844.53
2023-05-10T17:19:12.636Z,99854.53
2023-05-10T17:21:39.830Z,99853.19
2023-05-10T17:24:07.035Z,99856.97
2023-05-10T17:26:34.665Z,99855.91
2023-05-10T17:29:01.850Z,99853.88
2023-05-10T17:31:29.891Z,99856.63
2023-05-10T17:33:57.357Z,99850.53
2023-05-10T17:36:24.692Z,99865.63
2023-05-10T17:38:52.446Z,99866.22
2023-05-10T17:41:20.427Z,99860.09
2023-05-10T17:43:47.595Z,99864.56
2023-05-10T17:46:14.923Z,99863.44
2023-05-10T17:48:42.657Z,99870.44
2023-05-10T17:51:11.306Z,99879.06
2023-05-10T17:53:41.736Z,99877.50
2023-05-10T17:56:09.674Z,99876.78
2023-05-10T17:58:38.403Z,99873.09
2023-05-10T18:01:05.892Z,99877.44
2023-05-10T18:03:35.417Z,99880.97
2023-05-10T18:06:03.353Z,99880.97
2023-05-10T18:08:30.638Z,99884.78
2023-05-10T18:10:58.107Z,99881.22
2023-05-10T18:13:25.667Z,99886.41
2023-05-10T18:15:53.244Z,99888.47
2023-05-10T18:18:20.695Z,99890.19
2023-05-10T18:20:47.975Z,99892.00
2023-05-10T18:23:15.404Z,99895.41
2023-05-10T18:25:42.916Z,99899.91
2023-05-10T18:28:10.150Z,99897.28
2023-05-10T18:30:37.339Z,99899.03
2023-05-10T18:33:04.901Z,99898.12
2023-05-10T18:35:32.095Z,99906.81
2023-05-10T18:37:59.650Z,99905.06
2023-05-10T18:40:27.957Z,99909.44
2023-05-10T18:42:55.416Z,99908.38
2023-05-10T18:45:22.761Z,99918.31
2023-05-10T18:47:50.241Z,99921.91
2023-05-10T18:50:17.712Z,99919.28
2023-05-10T18:52:45.557Z,99923.56
2023-05-10T18:55:13.001Z,99921.81
2023-05-10T18:57:42.923Z,99921.88
2023-05-10T19:00:11.043Z,99931.59
2023-05-10T19:02:39.157Z,99932.44
2023-05-10T19:05:06.958Z,99935.94
2023-05-10T19:07:36.260Z,99935.97
2023-05-10T19:10:04.440Z,99933.31
2023-05-10T19:12:32.825Z,99936.84
2023-05-10T19:15:00.518Z,99939.47
2023-05-10T19:17:30.751Z,99943.03
2023-05-10T19:19:59.564Z,99944.72
2023-05-10T19:25:00.219Z,99943.03
2023-05-10T19:27:27.388Z,99936.00
2023-05-10T19:29:54.640Z,99938.50
2023-05-10T19:32:25.608Z,99941.22
2023-05-10T19:34:54.271Z,99946.53
2023-05-10T19:37:26.342Z,99940.37
2023-05-10T19:39:54.100Z,99949.19
2023-05-10T19:42:24.806Z,99946.56
2023-05-10T19:44:52.088Z,99949.16
2023-05-10T19:47:19.253Z,99943.88
2023-05-10T19:49:46.855Z,99944.78
2023-05-10T19:52:14.343Z,99945.66
2023-05-10T19:54:41.678Z,99944.78
2023-05-10T19:57:11.312Z,99941.22
2023-05-10T19:59:40.116Z,99931.59
2023-05-10T20:02:07.654Z,99937.75
2023-05-10T20:04:35.492Z,99943.88
2023-05-10T20:07:02.830Z,99936.84
2023-05-10T20:09:30.125Z,99937.72
2023-05-10T20:11:57.553Z,99941.25
2023-05-10T20:14:25.339Z,99936.84
2023-05-10T20:16:52.849Z,99943.00
2023-05-10T20:19:21.055Z,99946.53
2023-05-10T20:21:48.821Z,99948.28
2023-05-10T20:24:16.387Z,99947.41
2023-05-10T20:26:44.935Z,99941.22
2023-05-10T20:29:13.206Z,99937.56
2023-05-10T20:31:40.519Z,99941.19
2023-05-10T20:34:08.001Z,99942.97
2023-05-10T20:36:35.112Z,99943.03
2023-05-10T20:39:02.249Z,99938.56
2023-05-10T20:41:30.121Z,99941.19
2023-05-10T20:44:00.678Z,99942.94
2023-05-10T20:46:31.506Z,99937.66
2023-05-10T20:48:59.534Z,99943.88
2023-05-10T20:51:27.080Z,99940.34
2023-05-10T20:53:54.180Z,99944.69
2023-05-10T20:56:21.832Z,99940.25
2023-05-10T20:58:48.968Z,99943.88
2023-05-10T21:01:16.230Z,99938.59
2023-05-10T21:03:43.661Z,99934.16
2023-05-10T21:06:10.783Z,99942.94
2023-05-10T21:08:37.969Z,99939.34
2023-05-10T21:11:05.771Z,99937.59
2023-05-10T21:13:33.032Z,99935.84
2023-05-10T21:16:00.465Z,99934.19
2023-05-10T21:18:28.278Z,99935.03
2023-05-10T21:20:55.676Z,99934.03
2023-05-10T21:23:22.866Z,99937.59
2023-05-10T21:25:50.274Z,99941.97
2023-05-10T21:28:17.600Z,99931.25
2023-05-10T21:30:44.743Z,99944.69
2023-05-10T21:33:12.964Z,99939.44
2023-05-10T21:35:42.893Z,99939.44
2023-05-10T21:38:10.477Z,99938.41
2023-05-10T21:40:38.332Z,99942.75
2023-05-10T21:43:06.420Z,99938.44
2023-05-10T21:45:33.908Z,99938.47
2023-05-10T21:48:01.735Z,99939.44
2023-05-10T21:50:29.073Z,99935.81
2023-05-10T21:52:56.638Z,99935.69
2023-05-10T21:55:24.164Z,99939.16
2023-05-10T21:57:51.307Z,99939.34
2023-05-10T22:00:19.720Z,99941.06
2023-05-10T22:02:47.562Z,99940.94
2023-05-10T22:05:14.866Z,99953.75
2023-05-10T22:07:42.054Z,99941.66
2023-05-10T22:10:09.749Z,99951.94
2023-05-10T22:12:36.908Z,99948.00
2023-05-10T22:17:34.714Z,99954.41
2023-05-10T22:20:01.857Z,99953.50
2023-05-10T22:22:29.059Z,99955.22
2023-05-10T22:24:56.521Z,99952.38
2023-05-10T22:27:23.669Z,99962.78
2023-05-10T22:29:50.992Z,99954.87
2023-05-10T22:32:18.521Z,99958.66
2023-05-10T22:34:45.646Z,99958.50
2023-05-10T22:37:14.885Z,99955.13
2023-05-10T22:39:42.390Z,99955.03
2023-05-10T22:42:09.565Z,99960.47
2023-05-10T22:44:36.714Z,99957.91
2023-05-10T22:47:06.522Z,99948.25
2023-05-10T22:49:33.799Z,99958.81
2023-05-10T22:52:01.813Z,99960.56
2023-05-10T22:54:29.392Z,99965.69
2023-05-10T22:56:56.545Z,99964.63
2023-05-10T22:59:23.758Z,99957.53
2023-05-10T23:01:51.292Z,99964.84
2023-05-10T23:04:18.557Z,99968.31
2023-05-10T23:06:46.561Z,99970.22
2023-05-10T23:09:13.960Z,99973.88
2023-05-10T23:11:41.236Z,99974.47
2023-05-10T23:14:08.379Z,99963.66
2023-05-10T23:16:35.888Z,99962.19
2023-05-10T23:19:03.185Z,99965.66
2023-05-10T23:21:32.217Z,99967.66
2023-05-10T23:23:59.873Z,99961.03
2023-05-10T23:26:27.011Z,99966.25
2023-05-10T23:28:54.186Z,99962.09
2023-05-10T23:31:21.678Z,99965.41
2023-05-10T23:33:48.880Z,99968.31
2023-05-10T23:36:17.107Z,99970.06
2023-05-10T23:38:44.570Z,99961.94
2023-05-10T23:41:12.329Z,99969.53
2023-05-10T23:43:39.454Z,99973.53
2023-05-10T23:46:07.125Z,99980.56
2023-05-10T23:48:34.412Z,99978.09
2023-05-10T23:51:01.590Z,99979.63
2023-05-10T23:53:29.066Z,99976.91
2023-05-10T23:55:57.767Z,99974.19
2023-05-10T23:58:24.998Z,99983.34
